createdAt,value
2023-05-04T00:02:24.796Z,43.56
2023-05-04T00:04:52.312Z,43.44
2023-05-04T00:07:19.530Z,43.60
2023-05-04T00:09:46.519Z,43.71
2023-05-04T00:12:13.443Z,43.68
2023-05-04T00:14:40.391Z,43.87
2023-05-04T00:17:09.140Z,43.80
2023-05-04T00:19:37.056Z,43.95
2023-05-04T00:22:03.987Z,43.87
2023-05-04T00:24:30.860Z,44.10
2023-05-04T00:26:57.729Z,44.19
2023-05-04T00:29:24.715Z,44.15
2023-05-04T00:31:51.615Z,44.32
2023-05-04T00:34:19.817Z,44.38
2023-05-04T00:36:47.093Z,44.15
2023-05-04T00:39:14.092Z,44.31
2023-05-04T00:41:41.297Z,44.25
2023-05-04T00:44:08.341Z,44.46
2023-05-04T00:46:36.662Z,44.45
2023-05-04T00:49:04.294Z,44.08
2023-05-04T00:51:33.815Z,44.45
2023-05-04T00:54:01.008Z,44.34
2023-05-04T00:56:31.108Z,44.46
2023-05-04T00:58:58.513Z,44.10
2023-05-04T01:01:26.196Z,44.59
2023-05-04T01:03:55.253Z,44.45
2023-05-04T01:06:34.905Z,44.49
2023-05-04T01:09:10.832Z,44.46
2023-05-04T01:11:46.923Z,44.74
2023-05-04T01:14:15.462Z,44.63
2023-05-04T01:16:42.499Z,44.92
2023-05-04T01:19:09.441Z,45.04
2023-05-04T01:21:38.828Z,45.06
2023-05-04T01:24:06.892Z,45.29
2023-05-04T01:26:41.771Z,44.98
2023-05-04T01:29:17.522Z,45.08
2023-05-04T01:31:46.708Z,45.09
2023-05-04T01:34:14.293Z,45.16
2023-05-04T01:36:44.703Z,45.73
2023-05-04T01:39:12.026Z,45.21
2023-05-04T01:41:39.279Z,45.44
2023-05-04T01:44:06.199Z,45.56
2023-05-04T01:46:33.560Z,45.00
2023-05-04T01:49:00.503Z,45.37
2023-05-04T01:51:27.451Z,45.47
2023-05-04T01:53:55.704Z,45.68
2023-05-04T01:56:22.698Z,45.80
2023-05-04T01:58:49.581Z,45.68
2023-05-04T02:01:16.567Z,45.76
2023-05-04T02:03:44.442Z,45.84
2023-05-04T02:06:11.776Z,45.76
2023-05-04T02:08:39.254Z,46.15
2023-05-04T02:11:07.517Z,46.24
2023-05-04T02:13:34.452Z,46.49
2023-05-04T02:16:01.474Z,46.30
2023-05-04T02:18:28.688Z,46.50
2023-05-04T02:20:55.888Z,46.86
2023-05-04T02:23:22.857Z,46.97
2023-05-04T02:25:49.830Z,46.81
2023-05-04T02:28:18.209Z,47.10
2023-05-04T02:30:45.212Z,47.14
2023-05-04T02:33:12.139Z,47.13
2023-05-04T02:35:39.145Z,47.28
2023-05-04T02:38:06.471Z,46.89
2023-05-04T02:40:33.545Z,47.24
2023-05-04T02:43:00.479Z,47.19
2023-05-04T02:45:28.719Z,46.98
2023-05-04T02:47:55.662Z,47.54
2023-05-04T02:50:22.659Z,47.25
2023-05-04T02:52:49.570Z,47.42
2023-05-04T02:55:16.902Z,47.17
2023-05-04T02:57:43.833Z,47.17
2023-05-04T03:00:12.003Z,47.57
2023-05-04T03:02:40.242Z,46.91
2023-05-04T03:05:08.129Z,46.97
2023-05-04T03:07:35.058Z,46.98
2023-05-04T03:10:02.197Z,47.45
2023-05-04T03:12:29.119Z,47.13
2023-05-04T03:14:56.091Z,47.13
2023-05-04T03:17:23.053Z,47.12
2023-05-04T03:19:51.600Z,47.46
2023-05-04T03:22:18.549Z,47.50
2023-05-04T03:24:45.523Z,47.43
2023-05-04T03:27:12.392Z,47.20
2023-05-04T03:29:39.380Z,47.04
2023-05-04T03:32:06.654Z,47.16
2023-05-04T03:34:33.869Z,47.33
2023-05-04T03:37:02.059Z,47.36
2023-05-04T03:39:29.086Z,47.46
2023-05-04T03:41:55.993Z,47.81
2023-05-04T03:44:22.955Z,47.36
2023-05-04T03:46:49.886Z,47.57
2023-05-04T03:49:16.813Z,47.32
2023-05-04T03:51:43.706Z,47.64
2023-05-04T03:54:12.277Z,47.35
2023-05-04T03:56:39.378Z,47.67
2023-05-04T03:59:06.246Z,47.59
2023-05-04T04:01:33.161Z,47.78
2023-05-04T04:04:00.253Z,47.54
2023-05-04T04:06:27.417Z,47.41
2023-05-04T04:08:54.301Z,47.48
2023-05-04T04:11:22.535Z,47.25
2023-05-04T04:13:49.502Z,47.15
2023-05-04T04:16:16.500Z,47.59
2023-05-04T04:18:43.466Z,47.57
2023-05-04T04:21:10.580Z,47.60
2023-05-04T04:23:37.840Z,47.46
2023-05-04T04:26:06.554Z,46.98
2023-05-04T04:28:35.088Z,47.04
2023-05-04T04:31:03.313Z,46.93
2023-05-04T04:33:30.805Z,47.16
2023-05-04T04:35:57.707Z,47.31
2023-05-04T04:38:24.850Z,47.44
2023-05-04T04:40:52.584Z,46.81
2023-05-04T04:43:19.522Z,47.03
2023-05-04T04:45:47.734Z,47.01
2023-05-04T04:48:14.639Z,46.81
2023-05-04T04:50:41.613Z,46.71
2023-05-04T04:53:08.470Z,46.80
2023-05-04T04:55:35.518Z,46.52
2023-05-04T04:58:02.507Z,46.62
2023-05-04T05:00:29.986Z,46.48
2023-05-04T05:02:58.228Z,46.46
2023-05-04T05:05:25.191Z,46.52
2023-05-04T05:07:52.136Z,46.34
2023-05-04T05:10:19.452Z,46.32
2023-05-04T05:12:46.437Z,46.20
2023-05-04T05:15:13.678Z,46.25
2023-05-04T05:17:40.730Z,46.57
2023-05-04T05:20:11.204Z,46.54
2023-05-04T05:22:38.703Z,46.48
2023-05-04T05:25:08.920Z,46.16
2023-05-04T05:27:36.689Z,46.28
2023-05-04T05:30:06.306Z,45.99
2023-05-04T05:32:33.964Z,45.98
2023-05-04T05:35:01.033Z,45.99
2023-05-04T05:37:29.293Z,45.71
2023-05-04T05:39:56.279Z,45.51
2023-05-04T05:42:23.316Z,45.58
2023-05-04T05:44:51.074Z,45.45
2023-05-04T05:47:18.190Z,45.18
2023-05-04T05:49:46.339Z,45.41
2023-05-04T05:52:13.682Z,44.96
2023-05-04T05:54:42.253Z,44.96
2023-05-04T05:57:09.187Z,44.81
2023-05-04T05:59:36.092Z,44.33
2023-05-04T06:02:03.089Z,43.93
2023-05-04T06:04:30.192Z,43.87
2023-05-04T06:06:57.086Z,43.49
2023-05-04T06:09:23.984Z,43.36
2023-05-04T06:11:54.749Z,43.48
2023-05-04T06:14:22.374Z,43.17
2023-05-04T06:16:49.526Z,42.89
2023-05-04T06:19:17.809Z,42.72
2023-05-04T06:21:44.683Z,42.25
2023-05-04T06:24:12.402Z,41.81
2023-05-04T06:26:39.318Z,41.90
2023-05-04T06:29:07.857Z,41.38
2023-05-04T06:31:35.638Z,41.46
2023-05-04T06:34:03.070Z,41.30
2023-05-04T06:36:30.009Z,41.02
2023-05-04T06:38:58.255Z,41.13
2023-05-04T06:41:25.578Z,40.97
2023-05-04T06:43:52.956Z,40.67
2023-05-04T06:46:21.395Z,41.15
2023-05-04T06:48:48.596Z,40.99
2023-05-04T06:51:16.147Z,40.65
2023-05-04T06:53:43.020Z,40.90
2023-05-04T06:56:19.837Z,40.61
2023-05-04T06:58:47.495Z,40.13
2023-05-04T07:01:16.874Z,40.36
2023-05-04T07:03:46.525Z,40.30
2023-05-04T07:06:13.536Z,40.03
2023-05-04T07:08:40.664Z,39.51
2023-05-04T07:11:09.419Z,39.41
2023-05-04T07:13:36.409Z,39.52
2023-05-04T07:16:06.800Z,39.07
2023-05-04T07:18:33.884Z,38.92
2023-05-04T07:21:21.960Z,38.31
2023-05-04T07:23:49.251Z,38.20
2023-05-04T07:26:16.410Z,38.03
2023-05-04T07:28:43.950Z,37.76
2023-05-04T07:31:12.853Z,37.27
2023-05-04T07:33:40.235Z,37.00
2023-05-04T07:36:09.142Z,37.01
2023-05-04T07:38:37.007Z,36.39
2023-05-04T07:41:04.312Z,36.19
2023-05-04T07:43:31.273Z,36.06
2023-05-04T07:45:58.545Z,35.62
2023-05-04T07:48:26.596Z,35.43
2023-05-04T07:50:53.997Z,34.97
2023-05-04T07:53:22.576Z,34.43
2023-05-04T07:55:49.620Z,33.23
2023-05-04T07:58:17.109Z,32.56
2023-05-04T08:00:44.120Z,32.85
2023-05-04T08:03:11.272Z,32.73
2023-05-04T08:05:38.248Z,32.08
2023-05-04T08:08:05.532Z,31.64
2023-05-04T08:10:36.750Z,30.59
2023-05-04T08:13:04.141Z,30.04
2023-05-04T08:15:35.868Z,28.88
2023-05-04T08:18:04.512Z,26.89
2023-05-04T08:20:32.898Z,26.17
2023-05-04T08:23:04.043Z,25.34
2023-05-04T08:25:32.677Z,23.98
2023-05-04T08:27:59.578Z,21.52
2023-05-04T08:30:27.154Z,21.99
2023-05-04T08:32:56.463Z,21.33
2023-05-04T08:35:27.797Z,22.03
2023-05-04T08:37:54.816Z,21.45
2023-05-04T08:40:24.285Z,22.10
2023-05-04T08:42:53.251Z,22.36
2023-05-04T08:45:21.537Z,22.44
2023-05-04T08:47:48.517Z,21.98
2023-05-04T08:50:15.563Z,21.48
2023-05-04T08:52:46.629Z,21.32
2023-05-04T08:55:17.072Z,21.20
2023-05-04T08:57:45.067Z,21.00
2023-05-04T09:00:17.949Z,19.52
2023-05-04T09:02:46.081Z,19.10
2023-05-04T09:05:15.780Z,19.45
2023-05-04T09:07:42.787Z,18.62
2023-05-04T09:10:10.895Z,18.45
2023-05-04T09:12:38.222Z,17.88
2023-05-04T09:15:17.308Z,16.46
2023-05-04T09:20:25.700Z,16.68
2023-05-04T09:23:04.512Z,16.90
2023-05-04T09:25:32.092Z,16.89
2023-05-04T09:27:59.780Z,16.66
2023-05-04T09:30:28.223Z,17.27
2023-05-04T09:32:55.727Z,17.33
2023-05-04T09:35:34.073Z,16.71
2023-05-04T09:38:01.541Z,17.09
2023-05-04T09:40:33.006Z,16.49
2023-05-04T09:43:01.009Z,16.50
2023-05-04T09:45:40.011Z,16.43
2023-05-04T09:48:18.917Z,15.76
2023-05-04T09:50:54.804Z,16.80
2023-05-04T09:53:24.781Z,16.52
2023-05-04T09:56:08.481Z,16.71
2023-05-04T09:58:36.884Z,16.77
2023-05-04T10:01:06.332Z,16.40
2023-05-04T10:03:34.822Z,16.34
2023-05-04T10:06:06.380Z,16.22
2023-05-04T10:08:33.581Z,16.36
2023-05-04T10:11:01.749Z,16.68
2023-05-04T10:13:29.165Z,15.95
2023-05-04T10:16:14.203Z,16.43
2023-05-04T10:19:18.492Z,16.34
2023-05-04T10:22:07.885Z,15.88
2023-05-04T10:25:22.466Z,15.95
2023-05-04T10:28:04.497Z,15.77
2023-05-04T10:30:32.396Z,15.85
2023-05-04T10:33:02.465Z,15.99
2023-05-04T10:35:29.489Z,15.46
2023-05-04T10:37:57.271Z,15.07
2023-05-04T10:40:36.618Z,14.99
2023-05-04T10:43:04.400Z,15.09
2023-05-04T10:45:39.289Z,15.54
2023-05-04T10:48:08.867Z,15.93
2023-05-04T10:50:44.090Z,15.83
2023-05-04T10:53:12.516Z,16.17
2023-05-04T10:55:41.534Z,16.23
2023-05-04T10:58:10.856Z,16.11
2023-05-04T11:00:39.611Z,16.96
2023-05-04T11:03:09.739Z,16.79
2023-05-04T11:05:42.445Z,17.23
2023-05-04T11:08:18.325Z,17.38
2023-05-04T11:10:47.782Z,17.30
2023-05-04T11:13:16.197Z,16.96
2023-05-04T11:15:51.431Z,17.04
2023-05-04T11:18:28.577Z,16.69
2023-05-04T11:20:56.242Z,16.86
2023-05-04T11:23:24.574Z,16.18
2023-05-04T11:25:51.845Z,16.49
2023-05-04T11:28:20.342Z,16.63
2023-05-04T11:30:56.174Z,16.98
2023-05-04T11:33:24.029Z,17.11
2023-05-04T11:36:01.940Z,16.94
2023-05-04T11:38:29.796Z,16.83
2023-05-04T11:40:57.299Z,16.34
2023-05-04T11:43:24.492Z,16.81
2023-05-04T11:45:53.964Z,16.83
2023-05-04T11:48:21.382Z,17.64
2023-05-04T11:50:48.947Z,17.34
2023-05-04T11:53:22.991Z,17.11
2023-05-04T11:55:52.226Z,16.34
2023-05-04T11:58:25.652Z,17.15
2023-05-04T12:00:56.938Z,17.11
2023-05-04T12:14:30.790Z,15.21
2023-05-04T12:17:00.977Z,15.40
2023-05-04T12:19:27.459Z,15.50
2023-05-04T12:21:57.514Z,15.24
2023-05-04T12:24:25.960Z,15.91
2023-05-04T12:26:52.289Z,16.48
2023-05-04T12:29:18.644Z,16.63
2023-05-04T12:38:41.414Z,17.39
2023-05-04T12:41:10.056Z,17.93
2023-05-04T12:43:36.583Z,17.67
2023-05-04T12:46:03.591Z,17.54
2023-05-04T12:48:31.894Z,17.52
2023-05-04T12:50:59.722Z,17.59
2023-05-04T12:53:31.103Z,17.24
2023-05-04T13:03:39.021Z,17.74
2023-05-04T13:06:06.121Z,17.99
2023-05-04T13:08:32.746Z,17.59
2023-05-04T13:10:59.077Z,17.87
2023-05-04T13:16:07.930Z,18.60
2023-05-04T13:18:34.957Z,18.37
2023-05-04T13:21:02.082Z,18.52
2023-05-04T13:23:29.680Z,18.57
2023-05-04T13:25:56.853Z,18.85
2023-05-04T13:28:24.126Z,18.98
2023-05-04T13:30:51.075Z,19.23
2023-05-04T13:33:28.869Z,19.52
2023-05-04T13:35:58.484Z,19.42
2023-05-04T13:38:26.159Z,19.25
2023-05-04T13:40:53.241Z,19.17
2023-05-04T13:43:21.029Z,19.03
2023-05-04T13:45:48.344Z,19.11
2023-05-04T13:48:15.299Z,19.24
2023-05-04T13:50:43.513Z,19.08
2023-05-04T13:53:11.504Z,18.40
2023-05-04T13:55:38.409Z,18.53
2023-05-04T13:58:05.486Z,18.74
2023-05-04T14:00:32.561Z,18.58
2023-05-04T14:02:59.605Z,18.97
2023-05-04T14:05:26.988Z,19.39
2023-05-04T14:07:55.212Z,19.60
2023-05-04T14:10:22.398Z,19.55
2023-05-04T14:12:52.914Z,19.93
2023-05-04T14:15:22.567Z,19.70
2023-05-04T14:17:49.721Z,20.17
2023-05-04T14:20:16.916Z,19.82
2023-05-04T14:22:44.834Z,20.46
2023-05-04T14:25:13.924Z,19.50
2023-05-04T14:27:42.678Z,19.73
2023-05-04T14:30:11.569Z,20.07
2023-05-04T14:32:38.716Z,20.28
2023-05-04T14:35:09.684Z,20.63
2023-05-04T14:37:39.411Z,20.36
2023-05-04T14:40:09.325Z,20.40
2023-05-04T14:42:39.118Z,19.55
2023-05-04T14:45:08.111Z,19.59
2023-05-04T14:47:35.342Z,19.88
2023-05-04T14:50:02.539Z,19.61
2023-05-04T14:52:29.504Z,19.55
2023-05-04T14:54:56.438Z,20.13
2023-05-04T14:57:23.379Z,19.97
2023-05-04T14:59:52.080Z,19.82
2023-05-04T15:02:19.153Z,19.83
2023-05-04T15:04:46.860Z,19.51
2023-05-04T15:07:18.529Z,18.87
2023-05-04T15:09:45.534Z,18.82
2023-05-04T15:12:12.479Z,18.47
2023-05-04T15:14:39.416Z,18.51
2023-05-04T15:17:07.672Z,18.02
2023-05-04T15:19:38.009Z,18.70
2023-05-04T15:22:04.955Z,18.73
2023-05-04T15:24:31.915Z,19.27
2023-05-04T15:26:58.853Z,19.23
2023-05-04T15:29:25.751Z,19.10
2023-05-04T15:31:54.391Z,19.57
2023-05-04T15:34:22.700Z,19.46
2023-05-04T15:36:49.684Z,19.54
2023-05-04T15:39:16.588Z,19.67
2023-05-04T15:41:43.461Z,19.57
2023-05-04T15:44:12.594Z,19.75
2023-05-04T15:46:40.457Z,19.97
2023-05-04T15:49:07.485Z,20.22
2023-05-04T15:51:35.991Z,20.37
2023-05-04T15:54:03.784Z,20.37
2023-05-04T15:56:30.696Z,20.42
2023-05-04T15:58:57.603Z,20.52
2023-05-04T16:01:24.533Z,20.08
2023-05-04T16:03:59.553Z,20.11
2023-05-04T16:06:27.279Z,20.18
2023-05-04T16:08:55.550Z,20.00
2023-05-04T16:11:22.459Z,20.11
2023-05-04T16:13:49.415Z,20.53
2023-05-04T16:16:16.340Z,20.82
2023-05-04T16:18:43.367Z,20.82
2023-05-04T16:21:10.461Z,20.46
2023-05-04T16:23:37.369Z,20.88
2023-05-04T16:26:05.678Z,20.53
2023-05-04T16:28:32.774Z,21.00
2023-05-04T16:30:59.662Z,21.26
2023-05-04T16:33:26.720Z,20.87
2023-05-04T16:35:53.691Z,21.26
2023-05-04T16:38:20.646Z,21.54
2023-05-04T16:40:47.641Z,21.38
2023-05-04T16:43:15.934Z,21.16
2023-05-04T16:45:42.959Z,21.49
2023-05-04T16:48:09.922Z,20.83
2023-05-04T16:50:36.956Z,21.13
2023-05-04T16:53:03.945Z,21.40
2023-05-04T16:55:31.482Z,21.43
2023-05-04T16:57:59.270Z,21.45
2023-05-04T17:00:28.783Z,21.34
2023-05-04T17:02:55.794Z,20.99
2023-05-04T17:05:22.767Z,21.94
2023-05-04T17:07:49.650Z,21.05
2023-05-04T17:10:18.202Z,21.73
2023-05-04T17:12:45.212Z,21.04
2023-05-04T17:15:12.620Z,21.81
2023-05-04T17:17:41.507Z,21.68
2023-05-04T17:20:14.648Z,21.45
2023-05-04T17:22:42.883Z,21.80
2023-05-04T17:25:10.960Z,22.06
2023-05-04T17:27:38.040Z,21.49
2023-05-04T17:30:06.581Z,22.03
2023-05-04T17:32:34.487Z,22.31
2023-05-04T17:35:12.235Z,22.14
2023-05-04T17:37:50.713Z,22.30
2023-05-04T17:40:17.676Z,22.52
2023-05-04T17:42:44.626Z,22.44
2023-05-04T17:45:12.259Z,22.62
2023-05-04T17:47:39.306Z,22.47
2023-05-04T17:50:08.591Z,22.85
2023-05-04T17:52:36.397Z,22.65
2023-05-04T17:55:03.975Z,22.74
2023-05-04T17:57:31.305Z,22.74
2023-05-04T17:59:58.216Z,23.16
2023-05-04T18:02:25.186Z,23.27
2023-05-04T18:04:52.090Z,23.64
2023-05-04T18:07:20.326Z,24.02
2023-05-04T18:09:47.341Z,24.20
2023-05-04T18:12:14.367Z,24.61
2023-05-04T18:14:41.259Z,24.80
2023-05-04T18:17:08.178Z,24.94
2023-05-04T18:19:36.882Z,25.17
2023-05-04T18:22:03.890Z,25.37
2023-05-04T18:24:34.018Z,25.30
2023-05-04T18:27:02.014Z,25.52
2023-05-04T18:29:29.185Z,25.52
2023-05-04T18:31:56.166Z,25.69
2023-05-04T18:34:23.175Z,25.76
2023-05-04T18:36:50.046Z,25.92
2023-05-04T18:39:16.912Z,26.14
2023-05-04T18:41:45.161Z,25.99
2023-05-04T18:44:12.018Z,26.29
2023-05-04T18:46:38.983Z,26.36
2023-05-04T18:49:05.866Z,26.31
2023-05-04T18:51:32.797Z,26.75
2023-05-04T18:54:00.135Z,26.96
2023-05-04T18:56:27.216Z,27.23
2023-05-04T18:58:55.457Z,27.85
2023-05-04T19:01:22.395Z,27.85
2023-05-04T19:03:49.427Z,28.42
2023-05-04T19:06:16.350Z,28.52
2023-05-04T19:08:43.230Z,29.33
2023-05-04T19:11:10.099Z,29.56
2023-05-04T19:13:37.178Z,29.47
2023-05-04T19:16:06.221Z,29.73
2023-05-04T19:18:34.135Z,30.23
2023-05-04T19:21:05.040Z,30.35
2023-05-04T19:23:31.937Z,30.75
2023-05-04T19:25:58.940Z,30.41
2023-05-04T19:28:25.829Z,31.24
2023-05-04T19:30:53.831Z,31.22
2023-05-04T19:33:23.223Z,31.01
2023-05-04T19:35:51.614Z,31.35
2023-05-04T19:38:18.573Z,31.35
2023-05-04T19:40:45.489Z,31.63
2023-05-04T19:43:12.395Z,32.22
2023-05-04T19:45:39.521Z,32.08
2023-05-04T19:48:06.554Z,31.95
2023-05-04T19:50:34.786Z,31.96
2023-05-04T19:53:01.675Z,32.62
2023-05-04T19:55:28.581Z,32.67
2023-05-04T19:57:56.002Z,32.83
2023-05-04T20:00:23.112Z,32.62
2023-05-04T20:02:50.531Z,32.69
2023-05-04T20:05:17.833Z,32.93
2023-05-04T20:07:46.585Z,33.18
2023-05-04T20:10:13.443Z,32.74
2023-05-04T20:12:40.710Z,32.97
2023-05-04T20:15:08.623Z,33.18
2023-05-04T20:17:35.550Z,33.15
2023-05-04T20:20:03.604Z,33.47
2023-05-04T20:22:30.630Z,33.44
2023-05-04T20:24:58.982Z,33.38
2023-05-04T20:27:25.929Z,33.03
2023-05-04T20:29:52.793Z,33.17
2023-05-04T20:32:19.680Z,33.07
2023-05-04T20:34:46.622Z,33.60
2023-05-04T20:37:13.542Z,33.61
2023-05-04T20:39:40.569Z,33.63
2023-05-04T20:42:08.765Z,33.80
2023-05-04T20:44:35.657Z,33.88
2023-05-04T20:47:02.566Z,33.80
2023-05-04T20:49:29.490Z,33.85
2023-05-04T20:51:56.418Z,34.06
2023-05-04T20:54:24.010Z,34.27
2023-05-04T20:56:50.891Z,33.92
2023-05-04T20:59:19.222Z,34.07
2023-05-04T21:01:46.258Z,34.08
2023-05-04T21:04:14.774Z,34.28
2023-05-04T21:06:41.754Z,34.85
2023-05-04T21:09:08.921Z,34.96
2023-05-04T21:11:35.787Z,35.37
2023-05-04T21:14:03.177Z,35.34
2023-05-04T21:16:31.581Z,35.75
2023-05-04T21:18:58.643Z,35.94
2023-05-04T21:21:25.917Z,36.24
2023-05-04T21:23:52.793Z,36.85
2023-05-04T21:26:19.901Z,37.02
2023-05-04T21:28:46.744Z,37.56
2023-05-04T21:31:15.027Z,37.53
2023-05-04T21:33:43.263Z,38.01
2023-05-04T21:36:12.469Z,38.13
2023-05-04T21:38:39.566Z,38.37
2023-05-04T21:41:13.677Z,38.58
2023-05-04T21:43:40.826Z,39.09
2023-05-04T21:46:08.372Z,39.19
2023-05-04T21:48:36.051Z,39.48
2023-05-04T21:51:04.796Z,39.71
2023-05-04T21:53:34.492Z,39.89
2023-05-04T21:56:05.261Z,40.12
2023-05-04T21:58:32.142Z,40.27
2023-05-04T22:00:59.426Z,40.71
2023-05-04T22:03:28.550Z,40.83
2023-05-04T22:05:57.715Z,41.04
2023-05-04T22:08:27.119Z,41.11
2023-05-04T22:10:56.803Z,41.31
2023-05-04T22:13:23.829Z,41.32
2023-05-04T22:15:51.117Z,41.49
2023-05-04T22:18:18.241Z,41.84
2023-05-04T22:20:45.924Z,42.02
2023-05-04T22:23:13.241Z,41.86
2023-05-04T22:25:41.494Z,41.89
2023-05-04T22:28:08.410Z,42.33
2023-05-04T22:30:35.512Z,42.44
2023-05-04T22:33:02.508Z,42.39
2023-05-04T22:35:31.228Z,42.51
2023-05-04T22:37:58.295Z,42.51
2023-05-04T22:40:25.460Z,42.68
2023-05-04T22:42:53.652Z,42.90
2023-05-04T22:45:20.655Z,43.05
2023-05-04T22:47:47.567Z,43.43
2023-05-04T22:50:14.702Z,43.54
2023-05-04T22:52:41.888Z,43.63
2023-05-04T22:55:09.511Z,43.60
2023-05-04T22:57:36.631Z,43.86
2023-05-04T23:00:07.684Z,43.48
2023-05-04T23:02:35.158Z,43.74
2023-05-04T23:05:02.290Z,43.81
2023-05-04T23:07:29.810Z,43.93
2023-05-04T23:09:56.719Z,43.92
2023-05-04T23:12:25.335Z,44.01
2023-05-04T23:14:52.736Z,44.25
2023-05-04T23:17:21.926Z,44.26
2023-05-04T23:19:48.881Z,44.38
2023-05-04T23:22:15.864Z,44.20
2023-05-04T23:24:42.992Z,44.56
2023-05-04T23:27:11.120Z,44.41
2023-05-04T23:29:37.977Z,44.82
2023-05-04T23:32:05.939Z,44.70
2023-05-04T23:34:34.203Z,44.48
2023-05-04T23:37:01.476Z,44.90
2023-05-04T23:39:28.424Z,44.88
2023-05-04T23:41:55.398Z,44.80
2023-05-04T23:44:22.392Z,44.96
2023-05-04T23:46:49.257Z,45.12
2023-05-04T23:49:16.472Z,45.21
2023-05-04T23:51:45.005Z,44.77
2023-05-04T23:54:11.922Z,45.05
2023-05-04T23:56:38.832Z,45.11
2023-05-04T23:59:05.791Z,44.82
